KISN/ISN METAR and TAF weather

Enter ICAO airport designator
Station Type Date Time Source
KISN METAR 2019/04/25 09:52 UTC NOAA

KISN 250952Z AUTO 35012KT 10SM -RA FEW055 BKN080 OVC100 08/M04 A3004 RMK AO2 PK WND 34039/0859 RAB52 SLP177 P0000 T00831039


Station Type Date Time Source
KISN Decoded METAR 2019/04/25 09:52 UTC NOAA

SLOULIN FIELD INTERNATIONAL AIRPORT, ND, United States (KISN) 48-11N 103-39W 579M
Apr 25, 2019 - 05:52 AM EDT / 2019.04.25 0952 UTC
Wind: from the N (350 degrees) at 14 MPH (12 KT):0
Visibility: 10 mile(s):0
Sky conditions: overcast
Weather: light rain
Precipitation last hour: A trace
Temperature: 46.9 F (8.3 C)
Dew Point: 25.0 F (-3.9 C)
Relative Humidity: 41%
Pressure (altimeter): 30.04 in. Hg (1017 hPa)
ob: KISN 250952Z AUTO 35012KT 10SM -RA FEW055 BKN080 OVC100 08/M04 A3004 RMK AO2 PK WND 34039/0859 RAB52 SLP177 P0000 T00831039
cycle: 10

Station Type Date Time Source
KISN TAF 2019/04/25 09:27 UTC NOAA

TAF
AMD KISN 250924Z 2509/2606 33017G28KT P6SM FEW090 SCT200
FM251700 31023G31KT P6SM SKC
FM260200 31009KT P6SM SKC

Example: see airport list